sensor_id;sensor_type;location;lat;lon;timestamp;temperature;humidity
55091;DHT22;40985;53.180;5.800;2023-09-18T00:00:48;15.70;99.90
55091;DHT22;40985;53.180;5.800;2023-09-18T00:03:20;15.70;99.90
55091;DHT22;40985;53.180;5.800;2023-09-18T00:05:47;15.80;99.90
55091;DHT22;40985;53.180;5.800;2023-09-18T00:08:16;15.70;99.90
55091;DHT22;40985;53.180;5.800;2023-09-18T00:10:45;15.70;99.90
55091;DHT22;40985;53.180;5.800;2023-09-18T00:13:12;15.80;99.90
55091;DHT22;40985;53.180;5.800;2023-09-18T00:15:38;15.80;99.90
55091;DHT22;40985;53.180;5.800;2023-09-18T00:18:04;15.70;99.90
55091;DHT22;40985;53.180;5.800;2023-09-18T00:20:30;15.80;99.90
55091;DHT22;40985;53.180;5.800;2023-09-18T00:22:56;15.90;99.90
55091;DHT22;40985;53.180;5.800;2023-09-18T00:25:22;15.90;99.90
55091;DHT22;40985;53.180;5.800;2023-09-18T00:27:48;15.80;99.90
55091;DHT22;40985;53.180;5.800;2023-09-18T00:30:14;15.80;99.90
55091;DHT22;40985;53.180;5.800;2023-09-18T00:32:40;15.70;99.90
55091;DHT22;40985;53.180;5.800;2023-09-18T00:35:06;15.90;99.90
55091;DHT22;40985;53.180;5.800;2023-09-18T00:37:32;15.90;99.90
55091;DHT22;40985;53.180;5.800;2023-09-18T00:39:57;15.70;99.90
55091;DHT22;40985;53.180;5.800;2023-09-18T00:42:24;15.90;99.90
55091;DHT22;40985;53.180;5.800;2023-09-18T00:44:50;15.80;99.90
55091;DHT22;40985;53.180;5.800;2023-09-18T00:47:18;15.90;99.90
55091;DHT22;40985;53.180;5.800;2023-09-18T00:49:46;15.70;99.90
55091;DHT22;40985;53.180;5.800;2023-09-18T00:52:13;15.90;99.90
55091;DHT22;40985;53.180;5.800;2023-09-18T00:54:40;15.80;99.90
55091;DHT22;40985;53.180;5.800;2023-09-18T00:57:08;15.60;99.90
55091;DHT22;40985;53.180;5.800;2023-09-18T00:59:34;15.80;99.90
55091;DHT22;40985;53.180;5.800;2023-09-18T01:01:59;15.60;99.90
55091;DHT22;40985;53.180;5.800;2023-09-18T01:04:26;15.80;99.90
55091;DHT22;40985;53.180;5.800;2023-09-18T01:06:52;15.60;99.90
55091;DHT22;40985;53.180;5.800;2023-09-18T01:09:18;15.80;99.90
55091;DHT22;40985;53.180;5.800;2023-09-18T01:12:06;15.60;99.90
55091;DHT22;40985;53.180;5.800;2023-09-18T01:17:10;15.60;99.90
55091;DHT22;40985;53.180;5.800;2023-09-18T01:19:43;15.70;99.90
55091;DHT22;40985;53.180;5.800;2023-09-18T01:22:14;15.80;99.90
55091;DHT22;40985;53.180;5.800;2023-09-18T01:24:41;15.60;99.90
55091;DHT22;40985;53.180;5.800;2023-09-18T01:27:14;15.70;99.90
55091;DHT22;40985;53.180;5.800;2023-09-18T01:29:43;15.70;99.90
55091;DHT22;40985;53.180;5.800;2023-09-18T01:32:08;15.70;99.90
55091;DHT22;40985;53.180;5.800;2023-09-18T01:34:47;15.70;99.90
55091;DHT22;40985;53.180;5.800;2023-09-18T01:37:15;15.60;99.90
55091;DHT22;40985;53.180;5.800;2023-09-18T01:39:42;15.70;99.90
55091;DHT22;40985;53.180;5.800;2023-09-18T01:42:08;15.60;99.90
55091;DHT22;40985;53.180;5.800;2023-09-18T01:44:37;15.70;99.90
55091;DHT22;40985;53.180;5.800;2023-09-18T01:47:09;15.60;99.90
55091;DHT22;40985;53.180;5.800;2023-09-18T01:49:38;15.50;99.90
55091;DHT22;40985;53.180;5.800;2023-09-18T01:52:06;15.50;99.90
55091;DHT22;40985;53.180;5.800;2023-09-18T01:54:32;15.70;99.90
55091;DHT22;40985;53.180;5.800;2023-09-18T01:56:58;15.70;99.90
55091;DHT22;40985;53.180;5.800;2023-09-18T01:59:24;15.60;99.90
55091;DHT22;40985;53.180;5.800;2023-09-18T02:01:51;15.80;99.90
55091;DHT22;40985;53.180;5.800;2023-09-18T02:04:17;15.60;99.90
55091;DHT22;40985;53.180;5.800;2023-09-18T02:06:43;15.60;99.90
55091;DHT22;40985;53.180;5.800;2023-09-18T02:09:10;15.70;99.90
55091;DHT22;40985;53.180;5.800;2023-09-18T02:11:40;15.80;99.90
55091;DHT22;40985;53.180;5.800;2023-09-18T02:14:07;15.70;99.90
55091;DHT22;40985;53.180;5.800;2023-09-18T02:16:33;15.90;99.90
55091;DHT22;40985;53.180;5.800;2023-09-18T02:18:59;15.60;99.90
55091;DHT22;40985;53.180;5.800;2023-09-18T02:21:25;15.70;99.90
55091;DHT22;40985;53.180;5.800;2023-09-18T02:23:52;15.90;99.90
55091;DHT22;40985;53.180;5.800;2023-09-18T02:26:19;15.80;99.90
55091;DHT22;40985;53.180;5.800;2023-09-18T02:28:45;15.90;99.90
55091;DHT22;40985;53.180;5.800;2023-09-18T02:31:11;15.90;99.90
55091;DHT22;40985;53.180;5.800;2023-09-18T02:33:37;15.70;99.90
55091;DHT22;40985;53.180;5.800;2023-09-18T02:36:03;15.90;99.90
55091;DHT22;40985;53.180;5.800;2023-09-18T02:38:29;15.70;99.90
55091;DHT22;40985;53.180;5.800;2023-09-18T02:40:58;15.70;99.90
55091;DHT22;40985;53.180;5.800;2023-09-18T02:43:24;15.80;99.90
55091;DHT22;40985;53.180;5.800;2023-09-18T02:45:50;15.90;99.90
55091;DHT22;40985;53.180;5.800;2023-09-18T02:48:17;15.80;99.90
55091;DHT22;40985;53.180;5.800;2023-09-18T02:50:43;16.10;99.90
55091;DHT22;40985;53.180;5.800;2023-09-18T02:53:25;16.00;99.90
55091;DHT22;40985;53.180;5.800;2023-09-18T02:55:53;16.00;99.90
55091;DHT22;40985;53.180;5.800;2023-09-18T02:58:20;15.80;99.90
55091;DHT22;40985;53.180;5.800;2023-09-18T03:00:47;16.00;99.90
55091;DHT22;40985;53.180;5.800;2023-09-18T03:03:14;16.10;99.90
55091;DHT22;40985;53.180;5.800;2023-09-18T03:05:41;15.80;99.90
55091;DHT22;40985;53.180;5.800;2023-09-18T03:08:07;15.80;99.90
55091;DHT22;40985;53.180;5.800;2023-09-18T03:10:38;16.10;99.90
55091;DHT22;40985;53.180;5.800;2023-09-18T03:13:05;15.90;99.90
55091;DHT22;40985;53.180;5.800;2023-09-18T03:15:32;15.90;99.90
55091;DHT22;40985;53.180;5.800;2023-09-18T03:17:58;16.10;99.90
55091;DHT22;40985;53.180;5.800;2023-09-18T03:20:25;16.00;99.90
55091;DHT22;40985;53.180;5.800;2023-09-18T03:22:53;15.90;99.90
55091;DHT22;40985;53.180;5.800;2023-09-18T03:25:19;16.00;99.90
55091;DHT22;40985;53.180;5.800;2023-09-18T03:27:44;16.20;99.90
55091;DHT22;40985;53.180;5.800;2023-09-18T03:30:10;16.20;99.90
55091;DHT22;40985;53.180;5.800;2023-09-18T03:32:41;16.10;99.90
55091;DHT22;40985;53.180;5.800;2023-09-18T03:35:08;16.30;99.90
55091;DHT22;40985;53.180;5.800;2023-09-18T03:37:41;16.20;99.90
55091;DHT22;40985;53.180;5.800;2023-09-18T03:40:08;16.00;99.90
55091;DHT22;40985;53.180;5.800;2023-09-18T03:42:34;16.00;99.90
55091;DHT22;40985;53.180;5.800;2023-09-18T03:45:00;16.30;99.90
55091;DHT22;40985;53.180;5.800;2023-09-18T03:47:26;16.20;99.90
55091;DHT22;40985;53.180;5.800;2023-09-18T03:49:51;16.00;99.90
55091;DHT22;40985;53.180;5.800;2023-09-18T03:52:17;16.20;99.90
55091;DHT22;40985;53.180;5.800;2023-09-18T03:54:42;16.00;99.90
55091;DHT22;40985;53.180;5.800;2023-09-18T03:57:08;16.30;99.90
55091;DHT22;40985;53.180;5.800;2023-09-18T03:59:34;16.20;99.90
55091;DHT22;40985;53.180;5.800;2023-09-18T04:01:59;16.00;99.90
55091;DHT22;40985;53.180;5.800;2023-09-18T04:04:25;16.30;99.90
55091;DHT22;40985;53.180;5.800;2023-09-18T04:06:51;16.40;99.90
55091;DHT22;40985;53.180;5.800;2023-09-18T04:09:16;16.10;99.90
55091;DHT22;40985;53.180;5.800;2023-09-18T04:11:43;16.40;99.90
55091;DHT22;40985;53.180;5.800;2023-09-18T04:14:09;16.40;99.90
55091;DHT22;40985;53.180;5.800;2023-09-18T04:16:35;16.20;99.90
55091;DHT22;40985;53.180;5.800;2023-09-18T04:19:01;16.40;99.90
55091;DHT22;40985;53.180;5.800;2023-09-18T04:21:27;16.10;99.90
55091;DHT22;40985;53.180;5.800;2023-09-18T04:23:55;16.30;99.90
55091;DHT22;40985;53.180;5.800;2023-09-18T04:26:26;16.40;99.90
55091;DHT22;40985;53.180;5.800;2023-09-18T04:29:01;16.10;99.90
55091;DHT22;40985;53.180;5.800;2023-09-18T04:31:27;16.20;99.90
55091;DHT22;40985;53.180;5.800;2023-09-18T04:33:54;16.10;99.90
55091;DHT22;40985;53.180;5.800;2023-09-18T04:36:19;16.10;99.90
55091;DHT22;40985;53.180;5.800;2023-09-18T04:38:45;16.50;99.90
55091;DHT22;40985;53.180;5.800;2023-09-18T04:41:11;16.30;99.90
55091;DHT22;40985;53.180;5.800;2023-09-18T04:43:40;16.40;99.90
55091;DHT22;40985;53.180;5.800;2023-09-18T04:46:06;16.20;99.90
55091;DHT22;40985;53.180;5.800;2023-09-18T04:48:32;16.40;99.90
55091;DHT22;40985;53.180;5.800;2023-09-18T04:50:59;16.20;99.90
55091;DHT22;40985;53.180;5.800;2023-09-18T04:53:25;16.40;99.90
55091;DHT22;40985;53.180;5.800;2023-09-18T04:55:52;16.40;99.90
55091;DHT22;40985;53.180;5.800;2023-09-18T04:58:18;16.40;99.90
55091;DHT22;40985;53.180;5.800;2023-09-18T05:00:44;16.50;99.90
55091;DHT22;40985;53.180;5.800;2023-09-18T05:03:10;16.40;99.90
55091;DHT22;40985;53.180;5.800;2023-09-18T05:05:36;16.50;99.90
55091;DHT22;40985;53.180;5.800;2023-09-18T05:08:03;16.60;99.90
55091;DHT22;40985;53.180;5.800;2023-09-18T05:10:30;16.60;99.90
55091;DHT22;40985;53.180;5.800;2023-09-18T05:12:56;16.60;99.90
55091;DHT22;40985;53.180;5.800;2023-09-18T05:15:27;16.50;99.90
55091;DHT22;40985;53.180;5.800;2023-09-18T05:17:55;16.30;99.90
55091;DHT22;40985;53.180;5.800;2023-09-18T05:20:27;16.40;99.90
55091;DHT22;40985;53.180;5.800;2023-09-18T05:22:54;16.70;99.90
55091;DHT22;40985;53.180;5.800;2023-09-18T05:25:20;16.70;99.90
55091;DHT22;40985;53.180;5.800;2023-09-18T05:27:48;16.50;99.90
55091;DHT22;40985;53.180;5.800;2023-09-18T05:30:18;16.60;99.90
55091;DHT22;40985;53.180;5.800;2023-09-18T05:32:46;16.60;99.90
55091;DHT22;40985;53.180;5.800;2023-09-18T05:35:13;16.70;99.90
55091;DHT22;40985;53.180;5.800;2023-09-18T05:37:40;16.70;99.90
55091;DHT22;40985;53.180;5.800;2023-09-18T05:40:10;16.50;99.90
55091;DHT22;40985;53.180;5.800;2023-09-18T05:42:41;16.40;99.90
55091;DHT22;40985;53.180;5.800;2023-09-18T05:45:14;16.70;99.90
55091;DHT22;40985;53.180;5.800;2023-09-18T05:47:41;16.70;99.90
55091;DHT22;40985;53.180;5.800;2023-09-18T05:50:11;16.60;99.90
55091;DHT22;40985;53.180;5.800;2023-09-18T05:52:42;16.80;99.90
55091;DHT22;40985;53.180;5.800;2023-09-18T05:55:08;16.50;99.90
55091;DHT22;40985;53.180;5.800;2023-09-18T05:57:34;16.60;99.90
55091;DHT22;40985;53.180;5.800;2023-09-18T06:00:00;17.00;99.90
55091;DHT22;40985;53.180;5.800;2023-09-18T06:02:26;17.00;99.90
55091;DHT22;40985;53.180;5.800;2023-09-18T06:04:59;17.20;99.90
55091;DHT22;40985;53.180;5.800;2023-09-18T06:07:32;17.20;99.90
55091;DHT22;40985;53.180;5.800;2023-09-18T06:09:58;17.00;99.90
55091;DHT22;40985;53.180;5.800;2023-09-18T06:12:24;16.90;99.90
55091;DHT22;40985;53.180;5.800;2023-09-18T06:14:51;17.20;99.90
55091;DHT22;40985;53.180;5.800;2023-09-18T06:17:17;17.20;99.90
55091;DHT22;40985;53.180;5.800;2023-09-18T06:19:43;17.50;99.90
55091;DHT22;40985;53.180;5.800;2023-09-18T06:22:09;17.20;99.90
55091;DHT22;40985;53.180;5.800;2023-09-18T06:24:35;17.40;99.90
55091;DHT22;40985;53.180;5.800;2023-09-18T06:27:02;17.40;99.90
55091;DHT22;40985;53.180;5.800;2023-09-18T06:29:30;17.20;99.90
55091;DHT22;40985;53.180;5.800;2023-09-18T06:31:56;17.50;99.90
55091;DHT22;40985;53.180;5.800;2023-09-18T06:34:22;17.40;99.90
55091;DHT22;40985;53.180;5.800;2023-09-18T06:36:47;17.70;99.90
55091;DHT22;40985;53.180;5.800;2023-09-18T06:39:13;17.50;99.90
55091;DHT22;40985;53.180;5.800;2023-09-18T06:41:39;17.30;99.90
55091;DHT22;40985;53.180;5.800;2023-09-18T06:44:05;17.70;99.90
55091;DHT22;40985;53.180;5.800;2023-09-18T06:46:30;17.20;99.90
55091;DHT22;40985;53.180;5.800;2023-09-18T06:48:56;17.40;99.90
55091;DHT22;40985;53.180;5.800;2023-09-18T06:51:25;17.60;99.90
55091;DHT22;40985;53.180;5.800;2023-09-18T06:53:51;17.50;99.90
55091;DHT22;40985;53.180;5.800;2023-09-18T06:56:17;17.50;99.90
55091;DHT22;40985;53.180;5.800;2023-09-18T06:58:42;17.40;99.90
55091;DHT22;40985;53.180;5.800;2023-09-18T07:01:08;17.40;99.90
55091;DHT22;40985;53.180;5.800;2023-09-18T07:03:38;17.30;99.90
55091;DHT22;40985;53.180;5.800;2023-09-18T07:06:05;17.10;99.90
55091;DHT22;40985;53.180;5.800;2023-09-18T07:08:31;17.40;99.90
55091;DHT22;40985;53.180;5.800;2023-09-18T07:10:58;17.10;99.90
55091;DHT22;40985;53.180;5.800;2023-09-18T07:13:24;17.10;99.90
55091;DHT22;40985;53.180;5.800;2023-09-18T07:15:49;17.30;99.90
55091;DHT22;40985;53.180;5.800;2023-09-18T07:18:15;17.10;99.90
55091;DHT22;40985;53.180;5.800;2023-09-18T07:20:41;17.10;99.90
55091;DHT22;40985;53.180;5.800;2023-09-18T07:23:09;17.50;99.90
55091;DHT22;40985;53.180;5.800;2023-09-18T07:25:34;17.50;99.90
55091;DHT22;40985;53.180;5.800;2023-09-18T07:28:05;17.60;99.90
55091;DHT22;40985;53.180;5.800;2023-09-18T07:30:31;17.20;99.90
55091;DHT22;40985;53.180;5.800;2023-09-18T07:32:56;17.20;99.90
55091;DHT22;40985;53.180;5.800;2023-09-18T07:35:24;17.20;99.90
55091;DHT22;40985;53.180;5.800;2023-09-18T07:37:50;17.40;99.90
55091;DHT22;40985;53.180;5.800;2023-09-18T07:40:15;17.20;99.90
55091;DHT22;40985;53.180;5.800;2023-09-18T07:42:41;17.10;99.90
55091;DHT22;40985;53.180;5.800;2023-09-18T07:45:09;17.20;99.90
55091;DHT22;40985;53.180;5.800;2023-09-18T07:47:35;17.50;99.90
55091;DHT22;40985;53.180;5.800;2023-09-18T07:50:01;17.50;99.90
55091;DHT22;40985;53.180;5.800;2023-09-18T07:52:28;17.40;99.90
55091;DHT22;40985;53.180;5.800;2023-09-18T07:54:53;17.60;99.90
55091;DHT22;40985;53.180;5.800;2023-09-18T07:57:19;17.30;99.90
55091;DHT22;40985;53.180;5.800;2023-09-18T07:59:46;17.40;99.90
55091;DHT22;40985;53.180;5.800;2023-09-18T08:02:11;17.60;99.90
55091;DHT22;40985;53.180;5.800;2023-09-18T08:04:37;17.30;99.90
55091;DHT22;40985;53.180;5.800;2023-09-18T08:07:03;17.30;99.90
55091;DHT22;40985;53.180;5.800;2023-09-18T08:09:32;17.40;99.90
55091;DHT22;40985;53.180;5.800;2023-09-18T08:12:05;17.30;99.90
55091;DHT22;40985;53.180;5.800;2023-09-18T08:14:31;17.60;99.90
55091;DHT22;40985;53.180;5.800;2023-09-18T08:17:00;17.70;99.90
55091;DHT22;40985;53.180;5.800;2023-09-18T08:19:26;17.60;99.90
55091;DHT22;40985;53.180;5.800;2023-09-18T08:21:55;17.60;99.90
55091;DHT22;40985;53.180;5.800;2023-09-18T08:24:25;17.50;99.90
55091;DHT22;40985;53.180;5.800;2023-09-18T08:26:51;17.90;99.90
55091;DHT22;40985;53.180;5.800;2023-09-18T08:29:17;18.00;99.90
55091;DHT22;40985;53.180;5.800;2023-09-18T08:31:43;17.90;99.90
55091;DHT22;40985;53.180;5.800;2023-09-18T08:34:09;18.00;99.90
55091;DHT22;40985;53.180;5.800;2023-09-18T08:36:34;17.60;99.90
55091;DHT22;40985;53.180;5.800;2023-09-18T08:39:00;17.90;99.90
55091;DHT22;40985;53.180;5.800;2023-09-18T08:41:28;17.80;99.90
55091;DHT22;40985;53.180;5.800;2023-09-18T08:44:02;18.10;99.90
55091;DHT22;40985;53.180;5.800;2023-09-18T08:46:29;17.90;99.90
55091;DHT22;40985;53.180;5.800;2023-09-18T08:48:55;18.40;99.90
55091;DHT22;40985;53.180;5.800;2023-09-18T08:51:22;18.00;99.90
55091;DHT22;40985;53.180;5.800;2023-09-18T08:53:49;18.20;99.90
55091;DHT22;40985;53.180;5.800;2023-09-18T08:56:17;18.60;99.90
55091;DHT22;40985;53.180;5.800;2023-09-18T08:58:43;18.30;99.90
55091;DHT22;40985;53.180;5.800;2023-09-18T09:01:10;18.50;99.90
55091;DHT22;40985;53.180;5.800;2023-09-18T09:03:40;18.80;99.90
55091;DHT22;40985;53.180;5.800;2023-09-18T09:06:08;18.40;99.90
55091;DHT22;40985;53.180;5.800;2023-09-18T09:08:34;18.40;99.90
55091;DHT22;40985;53.180;5.800;2023-09-18T09:11:00;18.90;99.90
55091;DHT22;40985;53.180;5.800;2023-09-18T09:13:26;18.90;99.90
55091;DHT22;40985;53.180;5.800;2023-09-18T09:15:54;19.00;99.90
55091;DHT22;40985;53.180;5.800;2023-09-18T09:18:22;18.80;99.90
55091;DHT22;40985;53.180;5.800;2023-09-18T09:20:59;18.90;99.90
55091;DHT22;40985;53.180;5.800;2023-09-18T09:23:27;18.70;99.90
55091;DHT22;40985;53.180;5.800;2023-09-18T09:25:53;18.70;99.90
55091;DHT22;40985;53.180;5.800;2023-09-18T09:28:30;19.10;99.90
55091;DHT22;40985;53.180;5.800;2023-09-18T09:31:02;19.10;99.90
55091;DHT22;40985;53.180;5.800;2023-09-18T09:33:29;18.80;99.90
55091;DHT22;40985;53.180;5.800;2023-09-18T09:35:55;18.90;99.90
55091;DHT22;40985;53.180;5.800;2023-09-18T09:38:31;19.00;99.90
55091;DHT22;40985;53.180;5.800;2023-09-18T09:40:58;19.10;99.90
55091;DHT22;40985;53.180;5.800;2023-09-18T09:43:25;19.60;99.90
55091;DHT22;40985;53.180;5.800;2023-09-18T09:45:57;19.70;99.90
55091;DHT22;40985;53.180;5.800;2023-09-18T09:48:24;19.30;99.90
55091;DHT22;40985;53.180;5.800;2023-09-18T09:50:57;19.70;99.90
55091;DHT22;40985;53.180;5.800;2023-09-18T09:53:44;19.40;99.90
55091;DHT22;40985;53.180;5.800;2023-09-18T09:56:12;19.60;99.90
55091;DHT22;40985;53.180;5.800;2023-09-18T09:58:38;19.40;99.90
55091;DHT22;40985;53.180;5.800;2023-09-18T10:01:08;19.60;99.90
55091;DHT22;40985;53.180;5.800;2023-09-18T10:03:38;19.50;99.90
55091;DHT22;40985;53.180;5.800;2023-09-18T10:06:05;19.60;99.90
55091;DHT22;40985;53.180;5.800;2023-09-18T10:08:31;19.40;99.90
55091;DHT22;40985;53.180;5.800;2023-09-18T10:11:06;19.60;99.90
55091;DHT22;40985;53.180;5.800;2023-09-18T10:16:00;19.70;99.90
55091;DHT22;40985;53.180;5.800;2023-09-18T10:21:52;19.60;99.90
55091;DHT22;40985;53.180;5.800;2023-09-18T10:24:26;19.70;99.90
55091;DHT22;40985;53.180;5.800;2023-09-18T10:26:59;19.70;99.90
55091;DHT22;40985;53.180;5.800;2023-09-18T10:29:25;19.80;99.90
55091;DHT22;40985;53.180;5.800;2023-09-18T10:31:52;19.90;99.90
55091;DHT22;40985;53.180;5.800;2023-09-18T10:34:23;20.00;99.90
55091;DHT22;40985;53.180;5.800;2023-09-18T10:36:51;20.00;99.90
55091;DHT22;40985;53.180;5.800;2023-09-18T10:39:17;19.70;99.90
55091;DHT22;40985;53.180;5.800;2023-09-18T10:41:51;19.70;99.90
55091;DHT22;40985;53.180;5.800;2023-09-18T10:44:18;19.80;99.90
55091;DHT22;40985;53.180;5.800;2023-09-18T10:46:48;19.90;99.90
55091;DHT22;40985;53.180;5.800;2023-09-18T10:49:17;19.80;99.90
55091;DHT22;40985;53.180;5.800;2023-09-18T10:51:44;19.90;99.90
55091;DHT22;40985;53.180;5.800;2023-09-18T10:54:15;20.00;99.90
55091;DHT22;40985;53.180;5.800;2023-09-18T10:56:42;20.20;99.90
55091;DHT22;40985;53.180;5.800;2023-09-18T10:59:08;20.30;99.90
55091;DHT22;40985;53.180;5.800;2023-09-18T11:01:35;20.30;99.90
55091;DHT22;40985;53.180;5.800;2023-09-18T11:04:05;20.50;99.90
55091;DHT22;40985;53.180;5.800;2023-09-18T11:09:28;20.60;99.90
55091;DHT22;40985;53.180;5.800;2023-09-18T11:22:27;20.50;99.90
55091;DHT22;40985;53.180;5.800;2023-09-18T11:24:53;20.50;99.90
55091;DHT22;40985;53.180;5.800;2023-09-18T11:27:24;20.60;99.90
55091;DHT22;40985;53.180;5.800;2023-09-18T11:29:51;20.70;99.90
55091;DHT22;40985;53.180;5.800;2023-09-18T11:32:37;20.90;99.90
55091;DHT22;40985;53.180;5.800;2023-09-18T11:35:07;21.00;99.90
55091;DHT22;40985;53.180;5.800;2023-09-18T11:37:34;21.10;99.90
55091;DHT22;40985;53.180;5.800;2023-09-18T11:40:00;21.20;99.90
55091;DHT22;40985;53.180;5.800;2023-09-18T11:42:26;21.20;99.90
55091;DHT22;40985;53.180;5.800;2023-09-18T11:44:54;21.00;99.90
55091;DHT22;40985;53.180;5.800;2023-09-18T11:47:25;20.90;99.90
55091;DHT22;40985;53.180;5.800;2023-09-18T11:49:57;20.60;99.90
55091;DHT22;40985;53.180;5.800;2023-09-18T11:52:30;20.50;99.90
55091;DHT22;40985;53.180;5.800;2023-09-18T11:55:01;20.60;99.90
55091;DHT22;40985;53.180;5.800;2023-09-18T11:57:27;20.70;99.90
55091;DHT22;40985;53.180;5.800;2023-09-18T11:59:54;20.80;99.90
55091;DHT22;40985;53.180;5.800;2023-09-18T12:02:27;21.00;99.90
55091;DHT22;40985;53.180;5.800;2023-09-18T12:04:56;21.10;99.90
55091;DHT22;40985;53.180;5.800;2023-09-18T12:07:23;21.10;99.90
55091;DHT22;40985;53.180;5.800;2023-09-18T12:09:50;21.20;99.90
55091;DHT22;40985;53.180;5.800;2023-09-18T12:12:17;21.40;99.90
55091;DHT22;40985;53.180;5.800;2023-09-18T12:14:43;21.30;99.90
55091;DHT22;40985;53.180;5.800;2023-09-18T12:17:14;21.40;99.90
55091;DHT22;40985;53.180;5.800;2023-09-18T12:19:53;21.40;99.90
55091;DHT22;40985;53.180;5.800;2023-09-18T12:22:29;21.10;99.90
55091;DHT22;40985;53.180;5.800;2023-09-18T12:25:11;21.10;99.90
55091;DHT22;40985;53.180;5.800;2023-09-18T12:27:37;21.10;99.90
55091;DHT22;40985;53.180;5.800;2023-09-18T12:30:04;21.40;99.90
55091;DHT22;40985;53.180;5.800;2023-09-18T12:32:30;21.50;99.90
55091;DHT22;40985;53.180;5.800;2023-09-18T12:34:58;21.60;99.90
55091;DHT22;40985;53.180;5.800;2023-09-18T12:37:25;21.60;99.90
55091;DHT22;40985;53.180;5.800;2023-09-18T12:39:50;21.20;99.90
55091;DHT22;40985;53.180;5.800;2023-09-18T12:42:18;21.00;99.90
55091;DHT22;40985;53.180;5.800;2023-09-18T12:44:47;20.90;99.90
55091;DHT22;40985;53.180;5.800;2023-09-18T12:47:14;20.70;99.90
55091;DHT22;40985;53.180;5.800;2023-09-18T12:49:40;20.60;99.90
55091;DHT22;40985;53.180;5.800;2023-09-18T12:52:06;20.40;99.90
55091;DHT22;40985;53.180;5.800;2023-09-18T12:54:40;20.20;99.90
55091;DHT22;40985;53.180;5.800;2023-09-18T12:57:07;20.10;99.90
55091;DHT22;40985;53.180;5.800;2023-09-18T12:59:36;20.30;99.90
55091;DHT22;40985;53.180;5.800;2023-09-18T13:02:04;20.50;99.90
55091;DHT22;40985;53.180;5.800;2023-09-18T13:04:36;20.80;99.90
55091;DHT22;40985;53.180;5.800;2023-09-18T13:07:15;20.60;99.90
55091;DHT22;40985;53.180;5.800;2023-09-18T13:09:43;20.40;99.90
55091;DHT22;40985;53.180;5.800;2023-09-18T13:12:09;20.30;99.90
55091;DHT22;40985;53.180;5.800;2023-09-18T13:15:00;20.20;99.90
55091;DHT22;40985;53.180;5.800;2023-09-18T13:17:44;20.10;99.90
55091;DHT22;40985;53.180;5.800;2023-09-18T13:20:15;20.10;99.90
55091;DHT22;40985;53.180;5.800;2023-09-18T13:22:42;20.10;99.90
55091;DHT22;40985;53.180;5.800;2023-09-18T13:25:11;20.10;99.90
55091;DHT22;40985;53.180;5.800;2023-09-18T13:27:37;20.00;99.90
55091;DHT22;40985;53.180;5.800;2023-09-18T13:30:06;19.90;99.90
55091;DHT22;40985;53.180;5.800;2023-09-18T13:32:36;19.70;99.90
55091;DHT22;40985;53.180;5.800;2023-09-18T13:35:03;19.60;99.90
55091;DHT22;40985;53.180;5.800;2023-09-18T13:37:32;19.40;99.90
55091;DHT22;40985;53.180;5.800;2023-09-18T13:39:58;19.30;99.90
55091;DHT22;40985;53.180;5.800;2023-09-18T13:42:27;19.00;99.90
55091;DHT22;40985;53.180;5.800;2023-09-18T13:44:56;18.70;99.90
55091;DHT22;40985;53.180;5.800;2023-09-18T13:47:21;18.40;99.90
55091;DHT22;40985;53.180;5.800;2023-09-18T13:49:47;18.20;99.90
55091;DHT22;40985;53.180;5.800;2023-09-18T13:52:13;17.90;99.90
55091;DHT22;40985;53.180;5.800;2023-09-18T13:54:39;17.70;99.90
55091;DHT22;40985;53.180;5.800;2023-09-18T13:57:05;17.50;99.90
55091;DHT22;40985;53.180;5.800;2023-09-18T13:59:31;17.40;99.90
55091;DHT22;40985;53.180;5.800;2023-09-18T14:01:57;17.30;99.90
55091;DHT22;40985;53.180;5.800;2023-09-18T14:04:22;17.40;99.90
55091;DHT22;40985;53.180;5.800;2023-09-18T14:06:48;17.40;99.90
55091;DHT22;40985;53.180;5.800;2023-09-18T14:09:14;17.40;99.90
55091;DHT22;40985;53.180;5.800;2023-09-18T14:11:39;17.40;99.90
55091;DHT22;40985;53.180;5.800;2023-09-18T14:14:05;17.50;99.90
55091;DHT22;40985;53.180;5.800;2023-09-18T14:16:31;17.50;99.90
55091;DHT22;40985;53.180;5.800;2023-09-18T14:18:59;17.50;99.90
55091;DHT22;40985;53.180;5.800;2023-09-18T14:21:25;17.50;99.90
55091;DHT22;40985;53.180;5.800;2023-09-18T14:23:56;17.30;99.90
55091;DHT22;40985;53.180;5.800;2023-09-18T14:26:21;17.40;99.90
55091;DHT22;40985;53.180;5.800;2023-09-18T14:28:47;17.30;99.90
55091;DHT22;40985;53.180;5.800;2023-09-18T14:31:13;17.40;99.90
55091;DHT22;40985;53.180;5.800;2023-09-18T14:33:39;17.50;99.90
55091;DHT22;40985;53.180;5.800;2023-09-18T14:36:06;17.40;99.90
55091;DHT22;40985;53.180;5.800;2023-09-18T14:38:32;17.40;99.90
55091;DHT22;40985;53.180;5.800;2023-09-18T14:40:58;17.30;99.90
55091;DHT22;40985;53.180;5.800;2023-09-18T14:43:28;17.30;99.90
55091;DHT22;40985;53.180;5.800;2023-09-18T14:45:53;17.30;99.90
55091;DHT22;40985;53.180;5.800;2023-09-18T14:48:21;17.40;99.90
55091;DHT22;40985;53.180;5.800;2023-09-18T14:50:56;17.60;99.90
55091;DHT22;40985;53.180;5.800;2023-09-18T14:53:22;17.80;99.90
55091;DHT22;40985;53.180;5.800;2023-09-18T14:55:48;18.00;99.90
55091;DHT22;40985;53.180;5.800;2023-09-18T14:58:14;18.00;99.90
55091;DHT22;40985;53.180;5.800;2023-09-18T15:00:40;18.10;99.90
55091;DHT22;40985;53.180;5.800;2023-09-18T15:03:06;18.20;99.90
55091;DHT22;40985;53.180;5.800;2023-09-18T15:05:31;18.30;99.90
55091;DHT22;40985;53.180;5.800;2023-09-18T15:07:57;18.20;99.90
55091;DHT22;40985;53.180;5.800;2023-09-18T15:10:22;18.20;99.90
55091;DHT22;40985;53.180;5.800;2023-09-18T15:12:48;18.20;99.90
55091;DHT22;40985;53.180;5.800;2023-09-18T15:15:14;18.20;99.90
55091;DHT22;40985;53.180;5.800;2023-09-18T15:17:39;18.30;99.90
55091;DHT22;40985;53.180;5.800;2023-09-18T15:20:06;18.20;99.90
55091;DHT22;40985;53.180;5.800;2023-09-18T15:22:32;18.20;99.90
55091;DHT22;40985;53.180;5.800;2023-09-18T15:24:57;18.20;99.90
55091;DHT22;40985;53.180;5.800;2023-09-18T15:27:23;18.20;99.90
55091;DHT22;40985;53.180;5.800;2023-09-18T15:29:49;18.20;99.90
55091;DHT22;40985;53.180;5.800;2023-09-18T15:32:15;18.20;99.90
55091;DHT22;40985;53.180;5.800;2023-09-18T15:34:41;18.20;99.90
55091;DHT22;40985;53.180;5.800;2023-09-18T15:37:06;18.10;99.90
55091;DHT22;40985;53.180;5.800;2023-09-18T15:39:32;18.10;99.90
55091;DHT22;40985;53.180;5.800;2023-09-18T15:42:00;18.10;99.90
55091;DHT22;40985;53.180;5.800;2023-09-18T15:44:26;18.10;99.90
55091;DHT22;40985;53.180;5.800;2023-09-18T15:46:52;18.10;99.90
55091;DHT22;40985;53.180;5.800;2023-09-18T15:49:17;18.10;99.90
55091;DHT22;40985;53.180;5.800;2023-09-18T15:51:44;18.00;99.90
55091;DHT22;40985;53.180;5.800;2023-09-18T15:54:09;18.00;99.90